Latest Weather Observations for Perth Airport

IDW60901

Issued at 11:51 pm WST Tuesday 28 March 2017 (issued every 10 minutes, with the page automatically refreshed every 10 minutes)

About weather observations | Map of Perth area stations | Latest observations for Perth area | Other Formats
Station Details ID: 009021 Name: PERTH AIRPORT Lat: -31.93 Lon: 115.98 Height: 15.4 m
Data from the previous 72 hours. | See also: Recent months at Perth Airport
Date/Time
WST
Temp
°C
App
Temp
°C
Dew
Point
°C
Rel
Hum
%
Delta-T
°C
Wind Press
QNH
hPa
Press
MSL
hPa
Rain since
9am
mm
Dir  Spd
km/h
Gust
km/h
Spd
kts
Gust
kts
28/11:30pm 15.4 12.8 11.9 79 1.9 S 17 20 9 11 1020.4 1020.3 0.0
28/11:00pm 15.9 12.0 12.0 77 2.1 SSW 24 28 13 15 1020.4 1020.3 0.0
28/10:30pm 16.7 12.7 11.9 73 2.6 SSW 24 30 13 16 1020.3 1020.2 0.0
28/10:00pm 17.0 14.1 12.3 74 2.6 SSW 19 26 10 14 1020.1 1020.0 0.0
28/09:30pm 16.9 14.9 12.7 76 2.3 SSW 15 19 8 10 1020.1 1020.0 0.0
28/09:00pm 16.8 14.8 12.8 77 2.2 S 15 20 8 11 1020.0 1019.9 0.0
28/08:30pm 17.7 14.4 12.7 72 2.8 SSW 22 28 12 15 1019.7 1019.6 0.0
28/08:00pm 17.9 14.5 12.5 70 3.0 SSW 22 32 12 17 1019.6 1019.5 0.0
28/07:30pm 18.2 14.8 12.6 70 3.1 SSW 22 30 12 16 1019.1 1019.0 0.0
28/07:00pm 18.6 15.5 11.5 63 3.9 SW 19 26 10 14 1019.1 1019.0 0.0
28/06:30pm 18.9 14.3 11.0 60 4.3 SW 26 33 14 18 1018.6 1018.5 0.0
28/06:00pm 19.6 15.1 11.4 59 4.5 SW 26 35 14 19 1018.3 1018.2 0.0
28/05:30pm 20.1 15.0 11.8 59 4.6 SW 30 37 16 20 1018.1 1018.0 0.0
28/05:00pm 21.1 16.5 12.2 56 5.0 SW 28 37 15 20 1017.9 1017.8 0.0
28/04:30pm 21.4 17.3 12.6 57 5.0 SW 26 33 14 18 1018.0 1017.9 0.0
28/04:00pm 21.4 17.4 13.0 58 4.8 SW 26 35 14 19 1017.5 1017.4 0.0
28/03:30pm 21.6 18.0 13.2 59 4.8 SW 24 32 13 17 1017.7 1017.6 0.0
28/03:00pm 21.9 18.3 13.2 57 5.0 SW 24 32 13 17 1017.5 1017.4 0.0
28/02:30pm 22.3 19.5 13.1 56 5.3 WSW 20 28 11 15 1017.5 1017.4 0.0
28/02:00pm 22.2 19.1 12.3 53 5.6 SW 20 30 11 16 1017.7 1017.6 0.0
28/01:30pm 22.1 19.3 12.6 55 5.4 WSW 19 26 10 14 1018.3 1018.2 0.0
28/01:00pm 21.9 19.5 12.5 55 5.3 SW 17 26 9 14 1018.5 1018.4 0.0
28/12:30pm 22.2 18.7 12.1 52 5.7 SW 22 30 12 16 1018.7 1018.6 0.0
28/12:00pm 21.5 18.4 12.3 55 5.2 SW 20 32 11 17 1019.0 1018.9 0.0
28/11:30am 22.1 18.5 11.9 52 5.7 SSW 22 30 12 16 1019.0 1018.9 0.0
28/11:00am 22.3 19.5 11.5 50 6.0 SSW 17 30 9 16 1019.2 1019.1 0.0
28/10:30am 21.1 18.4 11.8 55 5.2 SSW 17 26 9 14 1019.4 1019.3 0.0
28/10:00am 20.2 17.4 11.5 57 4.8 S 17 30 9 16 1019.6 1019.5 0.0
28/09:30am 19.0 18.2 11.1 60 4.3 SE 6 11 3 6 1019.7 1019.6 0.0
28/09:00am 17.3 16.2 9.9 62 3.9 N 6 11 3 6 1019.7 1019.6 0.0
28/08:30am 15.8 14.5 9.8 67 3.1 NNE 7 9 4 5 1019.5 1019.4 0.0
28/08:00am 13.7 12.0 9.8 77 2.0 ENE 9 11 5 6 1019.3 1019.2 0.0
28/07:30am 11.4 10.1 9.8 90 0.8 NNE 7 9 4 5 1019.4 1019.3 0.0
28/07:00am 7.9 6.9 7.3 96 0.3 E 2 7 1 4 1019.2 1019.1 0.0
28/06:30am 7.0 4.9 6.6 97 0.2 E 7 9 4 5 1018.9 1018.8 0.0
28/06:00am 7.1 5.0 6.7 97 0.2 E 7 7 4 4 1018.9 1018.8 0.0
28/05:30am 7.5 5.5 7.1 97 0.2 ENE 7 9 4 5 1018.9 1018.8 0.0
28/05:00am 7.7 5.9 7.3 97 0.2 SSE 6 7 3 4 1018.9 1018.8 0.0
28/04:30am 7.6 6.2 7.2 97 0.2 SSE 4 11 2 6 1019.1 1019.0 0.0
28/04:00am 7.9 7.3 7.5 97 0.2 CALM 0 0 0 0 1019.1 1019.0 0.0
28/03:30am 8.0 6.3 7.6 97 0.2 NE 6 6 3 3 1019.3 1019.2 0.0
28/03:00am 8.6 8.1 8.0 96 0.3 CALM 0 0 0 0 1019.3 1019.2 0.0
28/02:30am 8.4 7.9 7.8 96 0.3 CALM 0 0 0 0 1019.3 1019.2 0.0
28/02:00am 8.9 7.2 8.3 96 0.3 NE 7 9 4 5 1019.4 1019.3 0.0
28/01:30am 9.2 7.7 8.4 95 0.4 S 6 7 3 4 1019.5 1019.4 0.0
28/01:00am 9.7 7.8 8.9 95 0.4 S 9 11 5 6 1019.5 1019.4 0.0
28/12:30am 10.1 8.2 8.9 92 0.6 SSW 9 9 5 5 1019.8 1019.7 0.0
28/12:00am 10.8 9.6 9.6 92 0.6 SE 6 9 3 5 1019.7 1019.6 0.0
 
Date/Time
WST
Temp
°C
App
Temp
°C
Dew
Point
°C
Rel
Hum
%
Delta-T
°C
Wind Press
QNH
hPa
Press
MSL
hPa
Rain since
9am
mm
Dir  Spd
km/h
Gust
km/h
Spd
kts
Gust
kts
27/11:30pm 11.6 9.8 9.6 87 1.0 S 9 11 5 6 1019.6 1019.5 0.0
27/11:00pm 12.9 10.8 9.6 80 1.7 SSW 11 13 6 7 1019.8 1019.7 0.0
27/10:30pm 14.6 12.6 10.0 74 2.4 S 11 15 6 8 1019.8 1019.7 0.0
27/10:00pm 15.4 12.2 9.8 69 2.9 SSW 17 20 9 11 1020.0 1019.9 0.0
27/09:30pm 15.8 12.9 9.8 67 3.1 SSW 15 19 8 10 1020.0 1019.9 0.0
27/09:00pm 16.5 12.9 9.8 64 3.5 SSW 19 26 10 14 1020.0 1019.9 0.0
27/08:30pm 17.0 13.1 9.5 61 3.9 SSW 20 28 11 15 1019.7 1019.6 0.0
27/08:00pm 17.4 12.0 9.6 60 4.1 SSW 28 33 15 18 1019.2 1019.1 0.0
27/07:30pm 18.0 12.6 9.4 57 4.5 SSW 28 35 15 19 1019.0 1018.9 0.0
27/07:00pm 18.7 13.2 9.1 53 5.0 SSW 28 35 15 19 1018.7 1018.6 0.0
27/06:30pm 19.2 13.6 8.8 51 5.4 SSW 28 33 15 18 1018.9 1018.8 0.0
27/06:00pm 20.0 14.3 8.5 47 6.0 SSW 28 33 15 18 1018.6 1018.5 0.0
27/05:30pm 21.1 14.9 7.8 42 6.9 SSW 30 37 16 20 1018.6 1018.5 0.0
27/05:00pm 21.8 15.5 7.2 39 7.5 S 30 37 16 20 1018.4 1018.3 0.0
27/04:30pm 22.9 17.1 6.4 34 8.4 S 26 32 14 17 1018.8 1018.7 0.0
27/04:00pm 22.7 17.4 5.2 32 8.7 S 22 30 12 16 1019.1 1019.0 0.0
27/03:30pm 22.7 18.0 5.2 32 8.7 SSW 19 32 10 17 1019.5 1019.4 0.0
27/03:00pm 23.7 19.1 5.4 30 9.2 SSW 19 26 10 14 1019.7 1019.6 0.0
27/02:30pm 23.3 19.3 4.7 30 9.2 SSW 15 28 8 15 1019.8 1019.7 0.0
27/02:00pm 23.0 17.9 3.9 28 9.3 SSW 20 28 11 15 1020.3 1020.2 0.0
27/01:30pm 23.0 18.8 3.6 28 9.4 SW 15 24 8 13 1020.6 1020.5 0.0
27/01:00pm 22.1 18.4 4.5 31 8.6 S 13 19 7 10 1021.2 1021.1 0.0
27/12:30pm 21.9 18.9 4.2 31 8.6 SW 9 17 5 9 1021.7 1021.6 0.0
27/12:00pm 20.4 17.4 4.1 34 7.8 E 9 13 5 7 1022.4 1022.3 0.0
27/11:30am 20.0 17.0 4.1 35 7.6 WSW 9 15 5 8 1022.6 1022.5 0.0
27/11:00am 19.7 16.5 5.1 38 7.1 W 11 17 6 9 1023.1 1023.0 0.0
27/10:30am 19.4 16.5 4.6 37 7.1 SW 9 17 5 9 1023.4 1023.3 0.0
27/10:00am 19.0 16.9 6.0 42 6.4 SSW 6 9 3 5 1023.6 1023.5 0.0
27/09:30am 17.7 15.9 7.1 50 5.3 NNE 6 11 3 6 1023.8 1023.7 0.0
27/09:00am 16.8 14.8 7.1 52 4.8 NNE 7 11 4 6 1023.9 1023.8 0.0
27/08:30am 14.9 12.6 7.6 61 3.6 NNE 9 13 5 7 1023.8 1023.7 0.0
27/08:00am 13.0 12.4 7.4 69 2.7 CALM 0 2 0 1 1023.6 1023.5 0.0
27/07:30am 10.4 9.1 7.7 83 1.3 E 4 7 2 4 1023.6 1023.5 0.0
27/07:00am 7.0 4.4 5.9 93 0.5 E 9 11 5 6 1023.4 1023.3 0.0
27/06:30am 6.3 4.1 5.4 94 0.4 NE 6 9 3 5 1023.1 1023.0 0.0
27/06:00am 7.0 5.3 5.9 93 0.5 NNE 4 9 2 5 1022.9 1022.8 0.0
27/05:30am 7.8 5.9 6.5 91 0.6 NE 6 9 3 5 1022.5 1022.4 0.0
27/05:00am 8.9 6.0 6.5 85 1.1 NE 11 11 6 6 1022.1 1022.0 0.0
27/04:30am 9.2 5.9 6.4 83 1.3 NE 13 13 7 7 1022.0 1021.9 0.0
27/04:00am 8.0 5.4 6.2 88 0.8 N 9 11 5 6 1021.7 1021.6 0.0
27/03:30am 7.7 5.5 6.4 91 0.6 NNE 7 9 4 5 1021.1 1021.0 0.0
27/03:00am 8.6 6.1 6.6 87 0.9 NNE 9 11 5 6 1021.1 1021.0 0.0
27/02:30am 8.6 6.4 6.2 85 1.1 ESE 7 11 4 6 1021.1 1021.0 0.0
27/02:00am 9.9 7.4 6.5 79 1.6 SSE 9 11 5 6 1021.1 1021.0 0.0
27/01:30am 11.4 8.9 6.7 73 2.2 SSE 9 11 5 6 1021.1 1021.0 0.0
27/01:00am 12.3 9.3 6.1 66 2.9 SSE 11 13 6 7 1021.0 1020.9 0.0
27/12:30am 11.8 8.9 6.3 69 2.6 SSE 11 15 6 8 1021.1 1021.0 0.0
27/12:00am 11.7 8.5 6.9 72 2.3 S 13 15 7 8 1020.8 1020.7 0.0
 
Date/Time
WST
Temp
°C
App
Temp
°C
Dew
Point
°C
Rel
Hum
%
Delta-T
°C
Wind Press
QNH
hPa
Press
MSL
hPa
Rain since
9am
mm
Dir  Spd
km/h
Gust
km/h
Spd
kts
Gust
kts
26/11:30pm 11.8 9.3 8.1 78 1.8 SSE 11 15 6 8 1020.6 1020.5 0.0
26/11:00pm 13.4 10.8 7.7 68 2.8 SSE 11 15 6 8 1020.4 1020.3 0.0
26/10:30pm 14.4 11.0 7.5 63 3.4 S 15 17 8 9 1020.4 1020.3 0.0
26/10:00pm 15.3 11.5 7.4 59 3.9 S 17 24 9 13 1020.3 1020.2 0.0
26/09:30pm 15.4 12.4 7.5 59 3.9 SSE 13 17 7 9 1019.9 1019.8 0.0
26/09:00pm 16.9 12.9 6.8 51 5.0 SSW 17 28 9 15 1019.7 1019.6 0.0
26/08:30pm 17.0 13.9 7.1 52 4.9 SSW 13 15 7 8 1019.5 1019.4 0.0
26/08:00pm 16.9 13.0 7.0 52 4.9 SSW 17 24 9 13 1019.4 1019.3 0.0
26/07:30pm 17.5 12.7 7.3 51 5.1 SSW 22 30 12 16 1019.0 1018.9 0.0
26/07:00pm 17.6 13.2 7.2 50 5.2 SSW 20 26 11 14 1018.5 1018.4 0.0
26/06:30pm 17.9 11.9 6.9 48 5.5 SW 28 37 15 20 1018.1 1018.0 0.0
26/06:00pm 18.3 12.0 5.6 43 6.2 SW 28 37 15 20 1017.7 1017.6 0.0
26/05:30pm 18.9 11.5 5.1 40 6.7 SW 33 48 18 26 1017.4 1017.3 0.0
26/05:23pm 18.9 12.1 5.3 41 6.6 SW 30 48 16 26 1017.3 1017.2 0.0
26/05:00pm 19.6 12.2 6.6 42 6.5 SW 35 50 19 27 1017.0 1016.9 0.0
26/04:30pm 19.6 12.0 7.7 46 6.1 SW 37 48 20 26 1016.7 1016.6 0.0
26/04:00pm 20.0 13.0 6.7 42 6.7 SW 33 52 18 28 1016.2 1016.1 0.0
26/03:56pm 20.6 13.6 7.0 41 6.9 SW 33 52 18 28 1016.1 1016.0 0.0
26/03:30pm 21.5 14.2 7.3 40 7.3 SSW 35 48 19 26 1015.8 1015.7 0.0
26/03:00pm 20.5 12.9 7.7 43 6.6 SW 37 56 20 30 1015.9 1015.8 0.0
26/02:52pm 20.5 13.9 8.4 45 6.3 SW 33 56 18 30 1015.8 1015.7 0.0
26/02:30pm 19.9 12.6 8.6 48 5.9 SW 37 48 20 26 1015.8 1015.7 0.0
26/02:00pm 21.4 14.1 7.4 40 7.2 SW 35 50 19 27 1015.5 1015.4 0.0
26/01:30pm 21.4 14.0 6.6 38 7.5 WSW 35 48 19 26 1015.4 1015.3 0.0
26/01:00pm 22.3 14.2 5.2 33 8.5 WSW 37 50 20 27 1015.4 1015.3 0.0
26/12:30pm 21.5 13.2 6.0 36 7.8 WSW 39 54 21 29 1015.2 1015.1 0.0
26/12:00pm 20.5 13.3 7.7 43 6.6 WSW 35 50 19 27 1015.1 1015.0 0.0
26/11:30am 21.5 13.6 4.5 33 8.3 WSW 35 50 19 27 1014.8 1014.7 0.0
26/11:00am 20.6 13.4 9.1 47 6.1 WSW 37 52 20 28 1014.7 1014.6 0.0
26/10:36am 20.7 14.3 9.5 48 6.0 WSW 33 52 18 28 1014.5 1014.4 0.0
26/10:30am 20.4 14.3 9.8 50 5.7 WSW 32 44 17 24 1014.5 1014.4 0.0
26/10:19am 20.4 13.5 10.4 52 5.4 SW 37 56 20 30 1014.5 1014.4 0.0
26/10:00am 20.5 13.9 8.7 46 6.2 WSW 33 50 18 27 1014.3 1014.2 0.0
26/09:30am 20.5 13.4 8.0 44 6.5 WSW 35 50 19 27 1013.9 1013.8 0.0
26/09:00am 19.7 12.9 9.1 50 5.6 WSW 35 54 19 29 1013.4 1013.3 1.8
26/08:45am 19.8 12.9 9.0 49 5.7 WSW 35 54 19 29 1013.1 1013.0 1.8
26/08:30am 19.3 13.4 11.1 59 4.5 WSW 33 46 18 25 1012.9 1012.8 1.8
26/08:17am 18.9 13.4 11.8 63 3.9 WSW 32 48 17 26 1012.7 1012.6 1.8
26/08:00am 18.1 15.2 14.1 77 2.3 SW 22 28 12 15 1012.6 1012.5 1.8
26/07:30am 17.8 14.3 14.5 81 1.9 SW 26 33 14 18 1012.3 1012.2 1.8
26/07:00am 17.1 13.8 15.0 87 1.2 SW 26 33 14 18 1011.8 1011.7 1.8
26/06:30am 16.6 12.6 15.2 91 0.8 WSW 30 46 16 25 1011.4 1011.3 1.8
26/06:07am 17.6 14.4 16.4 93 0.7 W 28 39 15 21 1010.6 1010.5 1.2
26/06:00am 18.0 14.8 16.2 89 1.1 W 28 39 15 21 1010.5 1010.4 0.8
26/05:30am 19.8 17.4 13.9 69 3.4 WNW 19 33 10 18 1010.1 1010.0 0.0
26/05:00am 19.4 17.5 14.2 72 3.0 WNW 17 24 9 13 1010.0 1009.9 0.0
26/04:30am 19.0 17.0 13.8 72 3.0 WNW 17 26 9 14 1009.8 1009.7 0.0
26/04:00am 19.4 16.7 13.0 66 3.6 WNW 19 26 10 14 1009.7 1009.6 0.0
26/03:30am 19.4 16.9 12.4 64 3.9 WNW 17 26 9 14 1009.9 1009.8 0.0
26/03:00am 18.9 17.1 12.1 64 3.8 WNW 13 19 7 10 1009.9 1009.8 0.0
26/02:30am 18.7 16.5 12.0 65 3.7 W 15 24 8 13 1009.8 1009.7 0.0
26/02:00am 18.9 16.6 11.6 62 4.0 WNW 15 20 8 11 1009.6 1009.5 0.0
26/01:30am 19.3 17.7 12.9 66 3.6 W 13 19 7 10 1009.6 1009.5 0.0
26/01:00am 19.5 18.0 13.0 66 3.7 W 13 19 7 10 1009.6 1009.5 0.0
26/12:30am 20.0 17.9 13.5 66 3.7 W 17 28 9 15 1009.9 1009.8 0.0
26/12:00am 20.2 18.7 15.3 73 2.9 W 17 26 9 14 1009.8 1009.7 0.0

Latest Capital City Observations: Canberra | Sydney | Melbourne | Brisbane | Adelaide | Perth | Hobart | Darwin

Other Formats:

Comma delimited format used in spreadsheet applications
http://www.bom.gov.au/fwo/IDW60901/IDW60901.94610.axf

JavaScript Object Notation format (JSON) in row-major order
http://www.bom.gov.au/fwo/IDW60901/IDW60901.94610.json